Time;durP1;ratioP1;P1;durP2;ratioP2;P2;SDS_P1;SDS_P2;PMS_P1;PMS_P2;Temp;Humidity;BMP_temperature;BMP_pressure;BME280_temperature;BME280_humidity;BME280_pressure;Samples;Min_cycle;Max_cycle;Signal;HPM_P1;HPM_P2
2023/10/10 00:01:05;;;;;;;8.93;5.50;;;22.90;99.90;;;;;;5073444;28;20175;-73
2023/10/10 00:03:32;;;;;;;9.98;6.28;;;22.30;99.90;;;;;;5073740;28;20041;-73
2023/10/10 00:06:06;;;;;;;11.63;6.60;;;22.20;99.90;;;;;;5073944;28;20041;-73
2023/10/10 00:08:43;;;;;;;8.90;5.13;;;23.20;99.90;;;;;;5073615;28;20033;-73
2023/10/10 00:11:10;;;;;;;12.77;6.35;;;22.30;99.90;;;;;;5073273;28;20048;-74
2023/10/10 00:13:42;;;;;;;10.77;7.10;;;22.60;99.90;;;;;;5073798;28;20044;-73
2023/10/10 00:16:23;;;;;;;11.35;5.85;;;22.00;99.90;;;;;;5074748;28;20040;-73
2023/10/10 00:18:49;;;;;;;8.48;5.82;;;;;;;;;;5073493;28;20076;-73
2023/10/10 00:21:22;;;;;;;11.82;5.72;;;22.30;99.90;;;;;;5073389;28;20052;-74
2023/10/10 00:23:49;;;;;;;;;;;22.20;99.90;;;;;;5074213;28;20506;-73
2023/10/10 00:26:20;;;;;;;9.68;5.57;;;23.10;99.90;;;;;;5073406;28;20091;-73
2023/10/10 00:28:56;;;;;;;11.55;5.25;;;22.90;99.90;;;;;;5073296;28;20114;-73
2023/10/10 00:31:23;;;;;;;11.77;5.60;;;23.30;99.90;;;;;;5057007;28;20047;-73
2023/10/10 00:33:51;;;;;;;6.60;4.70;;;22.90;99.90;;;;;;5056395;28;20090;-73
2023/10/10 00:39:06;;;;;;;7.75;5.10;;;22.40;99.90;;;;;;5073462;28;20396;-73
2023/10/10 00:41:42;;;;;;;6.97;4.88;;;22.30;99.90;;;;;;5072244;28;20044;-76
2023/10/10 00:44:12;;;;;;;8.82;5.40;;;22.00;99.90;;;;;;5072423;28;20086;-73
2023/10/10 00:46:37;;;;;;;9.98;5.68;;;23.10;99.90;;;;;;5072932;28;20037;-73
2023/10/10 00:49:06;;;;;;;8.93;5.22;;;22.90;99.90;;;;;;5072884;28;20043;-72
2023/10/10 00:51:33;;;;;;;9.30;5.75;;;23.20;99.90;;;;;;5072908;28;20080;-73
2023/10/10 00:54:16;;;;;;;9.57;5.30;;;22.10;99.90;;;;;;5072908;28;20048;-73
2023/10/10 00:56:44;;;;;;;6.80;4.82;;;23.60;99.90;;;;;;5072913;28;20115;-73
2023/10/10 00:59:11;;;;;;;9.27;5.55;;;22.50;99.90;;;;;;5056215;28;20048;-73
2023/10/10 01:01:40;;;;;;;8.45;5.50;;;22.10;99.90;;;;;;5072538;28;20408;-73
2023/10/10 01:04:08;;;;;;;12.10;5.50;;;22.30;99.90;;;;;;5074027;28;20041;-73
2023/10/10 01:06:39;;;;;;;10.25;5.55;;;22.90;99.90;;;;;;5056015;28;20128;-73
2023/10/10 01:09:21;;;;;;;9.90;5.30;;;23.40;99.90;;;;;;5072914;28;20119;-73
2023/10/10 01:11:49;;;;;;;9.48;6.32;;;22.60;99.90;;;;;;5072395;28;20492;-73
2023/10/10 01:14:18;;;;;;;9.48;6.13;;;22.70;99.90;;;;;;5073813;28;20040;-73
2023/10/10 01:16:54;;;;;;;6.68;5.78;;;23.00;99.90;;;;;;5072455;28;20123;-73
2023/10/10 01:19:21;;;;;;;7.28;5.13;;;;;;;;;;5055682;28;20040;-73
2023/10/10 01:21:57;;;;;;;9.35;5.97;;;23.20;99.90;;;;;;5073242;28;20048;-73
2023/10/10 01:24:27;;;;;;;6.60;5.47;;;23.40;99.90;;;;;;5072533;28;20503;-73
2023/10/10 01:27:03;;;;;;;7.30;5.90;;;22.90;99.90;;;;;;5055862;28;20059;-74
2023/10/10 01:29:39;;;;;;;7.28;5.50;;;23.00;99.90;;;;;;5072078;28;20515;-73
2023/10/10 01:32:05;;;;;;;14.82;7.05;;;;;;;;;;5072234;28;20044;-75
2023/10/10 01:34:31;;;;;;;10.82;6.20;;;22.90;99.90;;;;;;5072232;28;20407;-73
2023/10/10 01:37:07;;;;;;;15.00;7.20;;;22.00;99.90;;;;;;5072020;28;20119;-76
2023/10/10 01:39:51;;;;;;;11.50;6.18;;;22.80;99.90;;;;;;5071865;28;20040;-74
2023/10/10 01:42:23;;;;;;;9.05;5.68;;;;;;;;;;5071670;28;20450;-75
2023/10/10 01:44:51;;;;;;;9.95;6.15;;;;;;;;;;5071876;28;20044;-74
2023/10/10 01:47:26;;;;;;;12.13;6.05;;;;;;;;;;5072033;28;20044;-74
2023/10/10 01:49:54;;;;;;;10.18;6.20;;;22.00;99.90;;;;;;5071657;28;20500;-73
2023/10/10 01:52:21;;;;;;;14.20;6.70;;;22.80;99.90;;;;;;5071548;28;20079;-73
2023/10/10 01:54:52;;;;;;;9.27;5.70;;;22.40;99.90;;;;;;5071238;28;20119;-73
2023/10/10 01:57:21;;;;;;;9.80;5.20;;;22.60;99.90;;;;;;5054915;28;20511;-73
2023/10/10 01:59:48;;;;;;;9.43;6.22;;;22.30;99.90;;;;;;5071445;28;20041;-73
2023/10/10 02:02:16;;;;;;;11.75;5.75;;;21.70;99.90;;;;;;5072564;28;20048;-73
2023/10/10 02:04:45;;;;;;;11.00;5.57;;;22.10;99.90;;;;;;5071726;28;20041;-73
2023/10/10 02:07:53;;;;;;;8.73;5.30;;;22.90;99.90;;;;;;5071339;28;20037;-73
2023/10/10 02:10:17;;;;;;;10.52;5.80;;;22.20;99.90;;;;;;5063016;28;20044;-73
2023/10/10 02:12:46;;;;;;;15.38;6.28;;;22.80;99.90;;;;;;5071387;28;20036;-73
2023/10/10 02:15:13;;;;;;;12.02;6.68;;;22.10;99.90;;;;;;5071258;28;20487;-73
2023/10/10 02:17:46;;;;;;;15.02;6.38;;;21.90;99.90;;;;;;5071390;28;20412;-73
2023/10/10 02:25:39;;;;;;;10.10;7.18;;;22.40;99.90;;;;;;5071322;28;20079;-73
2023/10/10 02:28:19;;;;;;;10.05;6.38;;;21.90;99.90;;;;;;5070953;28;20037;-73
2023/10/10 02:30:49;;;;;;;11.65;6.00;;;;;;;;;;5070624;28;20037;-74
2023/10/10 02:33:19;;;;;;;10.52;6.13;;;23.20;99.90;;;;;;5054297;28;20446;-75
2023/10/10 02:35:56;;;;;;;12.30;6.53;;;22.80;99.90;;;;;;5070996;28;20048;-74
2023/10/10 02:38:54;;;;;;;11.35;6.43;;;22.40;99.90;;;;;;5070930;28;20079;-74
2023/10/10 02:46:34;;;;;;;13.00;7.10;;;22.10;99.90;;;;;;5070755;28;20087;-74
2023/10/10 02:49:02;;;;;;;11.15;7.20;;;23.10;99.90;;;;;;5070946;28;20403;-73
2023/10/10 02:51:28;;;;;;;13.90;8.00;;;;;;;;;;5070533;28;20050;-75
2023/10/10 02:53:54;;;;;;;11.55;7.32;;;;;;;;;;5070594;28;20522;-76
2023/10/10 02:56:21;;;;;;;14.68;7.55;;;22.00;99.90;;;;;;5070536;28;20157;-73
2023/10/10 02:58:53;;;;;;;10.55;7.15;;;22.30;99.90;;;;;;5070816;28;20040;-73
2023/10/10 03:04:04;;;;;;;15.25;8.60;;;22.30;99.90;;;;;;5070656;28;20048;-73
2023/10/10 03:06:29;;;;;;;13.32;8.52;;;21.80;99.90;;;;;;5069736;28;20553;-73
2023/10/10 03:09:27;;;;;;;15.18;8.32;;;;;;;;;;5053736;28;20072;-74
2023/10/10 03:11:53;;;;;;;13.00;8.15;;;21.90;99.90;;;;;;5070368;28;20050;-76
2023/10/10 03:14:28;;;;;;;12.73;7.88;;;22.80;99.90;;;;;;5070394;28;20048;-74
2023/10/10 03:17:05;;;;;;;17.40;9.63;;;23.10;99.90;;;;;;5070633;28;20083;-73
2023/10/10 03:19:38;;;;;;;14.13;7.95;;;22.00;99.90;;;;;;5053555;28;20037;-73
2023/10/10 03:22:27;;;;;;;;;;;22.90;99.90;;;;;;5053832;28;20051;-73
2023/10/10 03:25:21;;;;;;;11.27;7.28;;;22.90;99.90;;;;;;5053767;28;19996;-73
2023/10/10 03:30:50;;;;;;;17.02;9.85;;;;;;;;;;5070321;28;20086;-76
2023/10/10 03:36:13;;;;;;;14.48;9.00;;;22.50;99.90;;;;;;5070097;28;20058;-74
2023/10/10 03:38:57;;;;;;;14.52;9.02;;;22.20;99.90;;;;;;5070116;28;20047;-73
2023/10/10 05:25:22;;;;;;;27.95;17.50;;;22.00;99.90;;;;;;5072266;28;20097;-74
2023/10/10 05:27:52;;;;;;;30.77;16.38;;;22.90;99.90;;;;;;5071801;28;20040;-74
2023/10/10 05:30:39;;;;;;;27.52;18.02;;;22.80;99.90;;;;;;5055046;28;20093;-73
2023/10/10 05:33:05;;;;;;;49.85;23.30;;;22.70;99.90;;;;;;5072254;28;20040;-74
2023/10/10 05:35:39;;;;;;;32.08;17.85;;;22.10;99.90;;;;;;5072068;28;20036;-76
2023/10/10 05:38:07;;;;;;;45.25;23.55;;;22.90;99.90;;;;;;5071932;28;20561;-74
2023/10/10 05:40:33;;;;;;;41.08;21.15;;;21.70;99.90;;;;;;5074187;28;20053;-74
2023/10/10 05:43:00;;;;;;;39.22;20.45;;;22.30;99.90;;;;;;5056021;28;20032;-74
2023/10/10 05:45:26;;;;;;;33.00;20.75;;;22.00;99.90;;;;;;5072070;28;20043;-76
2023/10/10 05:47:52;;;;;;;34.38;19.08;;;;;;;;;;5072427;28;20037;-73
2023/10/10 05:50:18;;;;;;;34.70;19.92;;;;;;;;;;5072051;28;20581;-73
2023/10/10 05:52:45;;;;;;;29.63;18.67;;;21.80;99.90;;;;;;5054977;28;20036;-70
2023/10/10 05:55:11;;;;;;;48.00;24.40;;;22.40;99.90;;;;;;5055161;28;20072;-74
2023/10/10 05:57:40;;;;;;;40.63;21.70;;;22.60;99.90;;;;;;5071780;28;20040;-73
2023/10/10 06:00:11;;;;;;;39.58;22.33;;;23.00;99.90;;;;;;5071789;28;20036;-73
2023/10/10 06:02:44;;;;;;;35.75;20.77;;;22.70;99.90;;;;;;5071417;28;20040;-73
2023/10/10 06:05:09;;;;;;;39.13;22.50;;;21.80;99.90;;;;;;5071446;28;20060;-73
2023/10/10 06:07:42;;;;;;;45.53;24.00;;;22.30;99.90;;;;;;5071401;28;20400;-73
2023/10/10 06:10:18;;;;;;;43.03;22.63;;;22.50;99.90;;;;;;5071288;28;20495;-72
2023/10/10 06:12:45;;;;;;;37.17;22.17;;;21.80;99.90;;;;;;5071424;28;20075;-73
2023/10/10 06:15:11;;;;;;;36.53;21.20;;;23.10;99.90;;;;;;5054629;28;20123;-71
2023/10/10 06:17:38;;;;;;;39.95;21.48;;;22.90;99.90;;;;;;5071345;28;20128;-76
2023/10/10 06:20:10;;;;;;;29.65;18.20;;;22.80;99.90;;;;;;5071159;28;20036;-73
2023/10/10 06:22:37;;;;;;;38.72;20.75;;;;;;;;;;5070989;28;20504;-73
2023/10/10 06:25:05;;;;;;;34.55;20.48;;;23.00;99.90;;;;;;5071085;28;20507;-72
2023/10/10 06:27:36;;;;;;;36.00;19.17;;;23.00;99.90;;;;;;5054651;28;20032;-73
2023/10/10 06:30:04;;;;;;;38.72;20.23;;;22.30;99.90;;;;;;5102307;22;20495;-76
2023/10/10 06:32:33;;;;;;;36.33;20.73;;;;;;;;;;5111003;28;20083;-76
2023/10/10 06:35:16;;;;;;;27.15;16.95;;;22.80;99.90;;;;;;5111544;28;20046;-76
2023/10/10 06:37:42;;;;;;;30.45;19.38;;;21.30;99.90;;;;;;5111537;28;20047;-76
2023/10/10 06:40:09;;;;;;;34.20;20.42;;;20.70;99.90;;;;;;5111300;28;20040;-76
2023/10/10 06:42:35;;;;;;;36.42;19.52;;;21.60;99.90;;;;;;5094169;28;20094;-77
2023/10/10 06:45:11;;;;;;;31.25;18.58;;;21.00;99.90;;;;;;5111379;28;20032;-76
2023/10/10 06:47:43;;;;;;;31.95;19.77;;;20.70;99.90;;;;;;5094359;28;20035;-76
2023/10/10 06:50:12;;;;;;;27.75;18.35;;;20.70;99.90;;;;;;5111211;28;20040;-76
2023/10/10 06:52:38;;;;;;;33.83;18.38;;;21.50;99.90;;;;;;5111023;28;20039;-76
2023/10/10 06:55:10;;;;;;;28.67;18.25;;;21.40;99.90;;;;;;5098140;28;20046;-76
2023/10/10 06:57:40;;;;;;;33.28;19.10;;;21.40;99.90;;;;;;5099283;28;20082;-76
2023/10/10 07:00:55;;;;;;;29.60;17.10;;;20.50;99.90;;;;;;5099331;28;20040;-76
2023/10/10 07:03:00;;;;;;;30.13;17.67;;;21.20;99.90;;;;;;5103109;28;20056;-76
2023/10/10 07:05:33;;;;;;;32.42;20.60;;;;;;;;;;5111820;28;20046;-76
2023/10/10 07:07:59;;;;;;;32.38;19.15;;;20.30;99.90;;;;;;5111248;28;20126;-76
2023/10/10 07:10:32;;;;;;;28.13;20.02;;;21.10;99.90;;;;;;5093686;28;20051;-76
2023/10/10 07:12:59;;;;;;;38.50;22.15;;;21.00;99.90;;;;;;5111204;28;20035;-77
2023/10/10 07:15:33;;;;;;;37.95;23.73;;;20.80;99.90;;;;;;5111056;28;20097;-76
2023/10/10 07:18:15;;;;;;;43.65;25.92;;;20.90;99.90;;;;;;5110959;28;20039;-76
2023/10/10 07:23:37;;;;;;;43.97;26.10;;;;;;;;;;5110819;28;20051;-76
2023/10/10 07:26:20;;;;;;;44.13;26.17;;;21.70;99.90;;;;;;5111059;28;20035;-76
2023/10/10 07:28:52;;;;;;;42.05;25.58;;;21.50;99.90;;;;;;5093838;28;20028;-76
2023/10/10 07:31:23;;;;;;;50.88;28.75;;;21.20;99.90;;;;;;5110709;28;20043;-76
2023/10/10 07:33:55;;;;;;;44.50;28.05;;;20.80;99.90;;;;;;5094422;28;20519;-76
2023/10/10 07:36:25;;;;;;;50.45;28.98;;;21.00;99.90;;;;;;5094475;28;20032;-76
2023/10/10 07:38:54;;;;;;;56.67;30.65;;;21.10;99.90;;;;;;5094881;28;20061;-77
2023/10/10 07:41:30;;;;;;;54.42;31.67;;;22.20;99.90;;;;;;5111626;28;20081;-76
2023/10/10 07:43:59;;;;;;;60.78;30.73;;;21.20;99.90;;;;;;5111746;28;20537;-77
2023/10/10 07:46:27;;;;;;;51.83;30.75;;;21.30;99.90;;;;;;5111577;28;20042;-76
2023/10/10 07:48:56;;;;;;;54.22;30.60;;;21.80;99.90;;;;;;5111296;28;20032;-76
2023/10/10 07:51:29;;;;;;;47.72;30.10;;;21.50;99.90;;;;;;5111701;28;20093;-76
2023/10/10 07:56:47;;;;;;;51.15;30.83;;;21.20;99.90;;;;;;5092197;28;20043;-76
2023/10/10 07:59:14;;;;;;;48.58;29.30;;;22.40;99.90;;;;;;5115339;28;20568;-77
2023/10/10 08:01:44;;;;;;;48.13;30.20;;;22.20;99.90;;;;;;5114926;28;20088;-77
2023/10/10 08:04:14;;;;;;;49.78;29.35;;;22.50;99.90;;;;;;5115552;28;20039;-76
2023/10/10 08:06:44;;;;;;;45.42;28.23;;;21.70;99.90;;;;;;5115855;28;20398;-77
2023/10/10 08:11:46;;;;;;;51.05;30.52;;;22.00;99.90;;;;;;5114690;28;20055;-77
2023/10/10 08:14:12;;;;;;;43.58;29.30;;;22.60;99.90;;;;;;5115078;28;20093;-77
2023/10/10 08:16:39;;;;;;;47.40;29.90;;;22.00;99.90;;;;;;5115592;28;20384;-77
2023/10/10 08:19:07;;;;;;;52.25;29.73;;;22.10;99.90;;;;;;5115305;28;20075;-76
2023/10/10 08:21:48;;;;;;;48.88;28.80;;;22.40;99.90;;;;;;5114639;28;20043;-77
2023/10/10 08:24:15;;;;;;;50.58;31.00;;;21.90;99.90;;;;;;5097935;28;20076;-77
2023/10/10 08:26:41;;;;;;;45.88;29.75;;;;;;;;;;5115296;28;20039;-76
2023/10/10 08:29:08;;;;;;;46.50;30.02;;;21.70;99.90;;;;;;5114811;28;20526;-77
2023/10/10 08:31:36;;;;;;;56.28;31.15;;;22.70;99.90;;;;;;5114771;28;20148;-77
2023/10/10 08:34:02;;;;;;;46.75;31.40;;;22.80;99.90;;;;;;5098049;28;20046;-77
2023/10/10 08:36:29;;;;;;;50.63;29.75;;;22.70;99.90;;;;;;5114820;28;20042;-77
2023/10/10 08:39:11;;;;;;;48.17;31.60;;;22.40;99.90;;;;;;5114711;28;20118;-77
2023/10/10 08:41:39;;;;;;;44.17;28.48;;;;;;;;;;5096995;28;20491;-77
2023/10/10 08:44:09;;;;;;;48.08;31.17;;;22.50;99.90;;;;;;5096684;28;20039;-77
2023/10/10 08:46:41;;;;;;;52.33;31.95;;;22.80;99.90;;;;;;5114042;28;20090;-77
2023/10/10 08:49:08;;;;;;;54.00;33.88;;;22.60;99.90;;;;;;5096540;28;20067;-77
2023/10/10 08:51:34;;;;;;;57.00;34.40;;;22.40;99.90;;;;;;5113361;28;20050;-77
2023/10/10 08:54:01;;;;;;;54.17;34.58;;;22.70;99.90;;;;;;5113907;28;20050;-76
2023/10/10 08:56:28;;;;;;;55.60;34.67;;;22.70;99.90;;;;;;5113745;28;20111;-77
2023/10/10 08:58:54;;;;;;;54.42;34.17;;;;;;;;;;5096562;28;20082;-77
2023/10/10 09:01:20;;;;;;;53.28;32.97;;;22.60;99.90;;;;;;5112981;28;20075;-76
2023/10/10 09:03:46;;;;;;;56.83;34.35;;;23.00;99.90;;;;;;5112342;28;20079;-77
2023/10/10 09:06:21;;;;;;;56.63;35.78;;;23.00;99.90;;;;;;5113240;28;20554;-77
2023/10/10 09:08:50;;;;;;;55.72;35.92;;;;;;;;;;5096254;28;20483;-76
2023/10/10 09:11:20;;;;;;;64.53;34.40;;;22.80;99.90;;;;;;5096241;28;20104;-76
2023/10/10 09:13:52;;;;;;;58.63;36.08;;;22.60;99.90;;;;;;5096466;28;20051;-77
2023/10/10 09:16:38;;;;;;;53.53;34.23;;;23.20;99.90;;;;;;5096072;28;20032;-77
2023/10/10 09:19:11;;;;;;;62.13;35.55;;;23.40;99.90;;;;;;5096352;28;20517;-76
2023/10/10 09:21:56;;;;;;;54.13;35.43;;;23.20;99.90;;;;;;5112893;28;20410;-77
2023/10/10 09:24:28;;;;;;;57.00;35.95;;;22.80;99.90;;;;;;5113236;28;20050;-77
2023/10/10 09:27:10;;;;;;;52.97;34.35;;;22.90;99.90;;;;;;5095952;28;20185;-77
2023/10/10 09:29:43;;;;;;;60.53;35.03;;;22.90;99.90;;;;;;5112961;28;20433;-77
2023/10/10 09:32:15;;;;;;;59.88;33.08;;;;;;;;;;5112907;28;20506;-77
2023/10/10 09:34:41;;;;;;;61.00;34.90;;;23.70;99.90;;;;;;5112981;28;20047;-77
2023/10/10 09:37:13;;;;;;;55.95;35.47;;;23.40;99.90;;;;;;5113283;28;20032;-77
2023/10/10 09:39:41;;;;;;;52.45;33.28;;;23.10;99.90;;;;;;5112689;28;20039;-77
2023/10/10 09:42:44;;;;;;;61.22;35.30;;;23.20;99.90;;;;;;5112570;28;20040;-77
2023/10/10 09:47:43;;;;;;;59.25;33.55;;;23.00;99.90;;;;;;5112507;28;20048;-77
2023/10/10 09:52:54;;;;;;;55.75;32.25;;;23.30;99.90;;;;;;5112738;28;20436;-77
2023/10/10 10:00:45;;;;;;;54.38;32.28;;;23.50;99.90;;;;;;5112315;28;20482;-77
2023/10/10 10:09:32;;;;;;;55.50;31.77;;;24.00;99.90;;;;;;5112334;28;20043;-77
2023/10/10 10:12:19;;;;;;;48.30;31.58;;;23.60;99.90;;;;;;5111903;28;20043;-77
2023/10/10 10:15:05;;;;;;;44.58;29.35;;;23.60;99.90;;;;;;5111959;28;20122;-77
2023/10/10 10:18:12;;;;;;;48.40;28.85;;;24.20;99.90;;;;;;5113239;27;20036;-77
2023/10/10 10:20:48;;;;;;;50.17;30.00;;;23.90;99.90;;;;;;5094824;28;20035;-77
2023/10/10 10:23:26;;;;;;;47.53;27.55;;;23.70;99.90;;;;;;5094950;28;20146;-77
2023/10/10 10:26:04;;;;;;;43.72;27.92;;;23.90;99.90;;;;;;5112069;28;20055;-77
2023/10/10 10:28:42;;;;;;;47.53;28.08;;;24.00;99.90;;;;;;5112087;28;20031;-77
2023/10/10 10:31:28;;;;;;;43.33;28.15;;;24.30;99.90;;;;;;5095083;28;20043;-77
2023/10/10 10:34:06;;;;;;;45.60;28.17;;;24.40;99.90;;;;;;5094737;28;20128;-77
2023/10/10 10:36:50;;;;;;;44.83;27.58;;;24.00;99.90;;;;;;5094585;28;20490;-77
2023/10/10 10:39:25;;;;;;;42.50;27.75;;;24.00;99.90;;;;;;5111566;28;20541;-78
2023/10/10 10:41:56;;;;;;;43.55;27.45;;;24.40;99.90;;;;;;5111240;28;20040;-77
2023/10/10 10:44:55;;;;;;;43.33;25.75;;;24.50;99.90;;;;;;5111760;28;20093;-77
2023/10/10 10:47:38;;;;;;;38.88;26.58;;;24.50;99.90;;;;;;5111528;28;20034;-77
2023/10/10 10:50:05;;;;;;;41.38;24.45;;;24.20;99.90;;;;;;5111233;28;20040;-77
2023/10/10 10:52:44;;;;;;;38.35;25.15;;;24.30;99.90;;;;;;5094570;28;20044;-77
2023/10/10 10:55:29;;;;;;;38.55;25.45;;;24.60;99.90;;;;;;5094398;28;20502;-77
2023/10/10 11:01:16;;;;;;;36.25;22.73;;;25.00;99.90;;;;;;5099078;28;20039;-77
2023/10/10 11:03:43;;;;;;;39.33;22.25;;;24.50;99.90;;;;;;5111238;28;20043;-78
2023/10/10 11:06:10;;;;;;;34.42;20.02;;;;;;;;;;5094674;28;20398;-77
2023/10/10 11:11:24;;;;;;;33.90;20.45;;;;;;;;;;5110720;28;20126;-77
2023/10/10 11:14:23;;;;;;;35.72;20.30;;;;;;;;;;5111485;28;20054;-77
2023/10/10 11:16:56;;;;;;;32.33;20.50;;;;;;;;;;5094556;28;20047;-77
2023/10/10 11:22:05;;;;;;;31.98;21.38;;;;;;;;;;5111973;28;20167;-77
2023/10/10 11:24:35;;;;;;;35.67;21.48;;;;;;;;;;5112832;28;20057;-77
2023/10/10 11:29:44;;;;;;;28.50;20.75;;;;;;;;;;5111025;28;20044;-77
2023/10/10 11:32:15;;;;;;;36.75;23.35;;;;;;;;;;5111082;28;20099;-77
2023/10/10 11:34:45;;;;;;;34.03;22.17;;;;;;;;;;5111221;28;20327;-77
2023/10/10 11:37:14;;;;;;;32.47;21.60;;;25.20;99.90;;;;;;5118320;28;20099;-77
2023/10/10 11:40:19;;;;;;;35.20;22.60;;;25.10;99.90;;;;;;5117740;28;20036;-77
2023/10/10 11:42:35;;;;;;;34.85;22.27;;;25.50;99.90;;;;;;5115565;28;20047;-77
2023/10/10 11:45:04;;;;;;;36.15;21.90;;;25.50;99.90;;;;;;5094046;28;20036;-77
2023/10/10 11:47:44;;;;;;;35.03;22.58;;;25.50;99.90;;;;;;5112342;28;20122;-77
2023/10/10 11:50:17;;;;;;;38.50;23.80;;;25.40;99.90;;;;;;5094460;28;20036;-77
2023/10/10 11:52:56;;;;;;;35.13;22.20;;;25.80;99.90;;;;;;5112142;28;20114;-77
2023/10/10 11:55:25;;;;;;;32.65;20.80;;;25.90;99.90;;;;;;5110621;28;20046;-77
2023/10/10 11:57:57;;;;;;;32.63;22.05;;;25.80;99.90;;;;;;5110904;28;20127;-77
2023/10/10 12:00:30;;;;;;;33.40;21.30;;;25.80;99.90;;;;;;5110643;28;20040;-77
2023/10/10 12:03:05;;;;;;;31.38;22.33;;;25.70;99.90;;;;;;5111759;28;20089;-77
2023/10/10 12:08:01;;;;;;;38.08;21.75;;;25.80;99.90;;;;;;5110738;28;20479;-77
2023/10/10 12:13:19;;;;;;;34.45;21.60;;;26.30;99.90;;;;;;5110684;28;20456;-77
2023/10/10 12:15:55;;;;;;;;;;;25.80;99.90;;;;;;5112245;28;20564;-77
2023/10/10 12:18:30;;;;;;;38.08;22.65;;;25.30;99.90;;;;;;5110659;28;19916;-77
2023/10/10 12:21:01;;;;;;;32.95;22.65;;;25.40;99.90;;;;;;5110444;28;20035;-77
2023/10/10 12:23:27;;;;;;;31.35;21.17;;;25.50;99.90;;;;;;5093558;28;20046;-77
2023/10/10 12:25:54;;;;;;;33.38;22.48;;;25.20;99.90;;;;;;5110236;28;20495;-77
2023/10/10 12:28:20;;;;;;;35.08;22.63;;;25.20;99.90;;;;;;5110277;28;20036;-77
2023/10/10 12:30:46;;;;;;;38.40;23.00;;;25.70;99.90;;;;;;5093631;28;20032;-77
2023/10/10 12:33:16;;;;;;;38.28;24.25;;;25.60;99.90;;;;;;5093313;28;20042;-77
2023/10/10 12:35:46;;;;;;;33.45;23.27;;;25.40;99.90;;;;;;5093573;28;20142;-77
2023/10/10 12:38:20;;;;;;;36.08;23.30;;;25.40;99.90;;;;;;5112375;28;20406;-77
2023/10/10 12:40:50;;;;;;;42.78;24.95;;;25.40;99.90;;;;;;5113718;28;20114;-77
2023/10/10 12:43:20;;;;;;;43.33;24.75;;;25.30;99.90;;;;;;5113703;28;20042;-77
2023/10/10 12:45:46;;;;;;;39.45;23.02;;;25.30;99.90;;;;;;5116575;28;20039;-77
2023/10/10 12:48:20;;;;;;;31.33;21.58;;;25.00;99.90;;;;;;5098841;28;20039;-77
2023/10/10 12:50:47;;;;;;;33.42;22.33;;;25.20;99.90;;;;;;5097896;28;20040;-77
2023/10/10 12:53:18;;;;;;;37.15;23.58;;;25.50;99.90;;;;;;5097689;28;20482;-77
2023/10/10 12:55:52;;;;;;;37.00;24.80;;;25.70;99.90;;;;;;5114724;28;20075;-77
2023/10/10 12:58:20;;;;;;;40.97;25.35;;;25.00;99.90;;;;;;5114641;28;20050;-76
2023/10/10 13:00:50;;;;;;;38.95;25.50;;;25.00;99.90;;;;;;5097678;28;20486;-77
2023/10/10 13:03:18;;;;;;;40.53;25.10;;;25.50;99.90;;;;;;5114574;28;20039;-77
2023/10/10 13:05:47;;;;;;;40.22;26.10;;;25.00;99.90;;;;;;5097662;28;20040;-76
2023/10/10 13:08:15;;;;;;;41.20;27.42;;;24.90;99.90;;;;;;5097445;28;20038;-77
2023/10/10 13:10:44;;;;;;;41.92;26.92;;;25.30;99.90;;;;;;5097352;28;20036;-77
2023/10/10 13:13:10;;;;;;;42.58;27.98;;;25.10;99.90;;;;;;5114290;28;20044;-76
2023/10/10 13:15:49;;;;;;;40.83;26.20;;;25.50;99.90;;;;;;5114704;28;20135;-76
2023/10/10 13:18:22;;;;;;;39.05;27.02;;;25.10;99.90;;;;;;5117490;28;20496;-77
2023/10/10 13:20:50;;;;;;;43.53;28.70;;;25.20;99.90;;;;;;5115448;28;20042;-77
2023/10/10 13:23:19;;;;;;;41.83;29.15;;;25.50;99.90;;;;;;5113958;28;20043;-76
2023/10/10 13:25:48;;;;;;;44.30;28.63;;;25.30;99.90;;;;;;5096836;28;20043;-77
2023/10/10 13:28:17;;;;;;;47.38;29.73;;;25.20;99.90;;;;;;5097044;28;20058;-77
2023/10/10 13:30:46;;;;;;;45.85;31.45;;;25.20;99.90;;;;;;5113561;28;20075;-76
2023/10/10 13:33:16;;;;;;;45.42;30.05;;;25.30;99.90;;;;;;5113697;28;20039;-77
2023/10/10 13:35:43;;;;;;;47.10;31.50;;;25.20;99.90;;;;;;5096744;28;20047;-76
2023/10/10 13:38:10;;;;;;;43.80;31.25;;;25.20;99.90;;;;;;5113812;28;20044;-77
2023/10/10 13:40:48;;;;;;;47.83;30.73;;;25.40;99.90;;;;;;5096642;28;20046;-76
2023/10/10 13:43:18;;;;;;;52.08;32.95;;;25.30;99.90;;;;;;5113704;28;20040;-76
2023/10/10 13:45:48;;;;;;;51.55;32.60;;;25.40;99.90;;;;;;5113586;28;20036;-76
2023/10/10 13:48:18;;;;;;;55.83;32.00;;;25.40;99.90;;;;;;5113306;28;20035;-76
2023/10/10 13:50:45;;;;;;;45.90;29.90;;;25.30;99.90;;;;;;5112810;28;20036;-76
2023/10/10 13:53:14;;;;;;;40.15;29.85;;;25.80;99.90;;;;;;5114035;28;20043;-77
2023/10/10 13:55:44;;;;;;;48.13;29.63;;;25.50;99.90;;;;;;5097013;28;20047;-76
2023/10/10 13:58:12;;;;;;;45.28;30.58;;;25.20;99.90;;;;;;5112354;28;20035;-77
2023/10/10 14:03:31;;;;;;;48.72;31.75;;;25.30;99.90;;;;;;5080883;28;20047;-76
2023/10/10 14:06:03;;;;;;;54.28;33.08;;;25.60;99.90;;;;;;5112155;28;20131;-77
2023/10/10 14:08:30;;;;;;;48.28;30.67;;;25.10;99.90;;;;;;5095100;28;20517;-76
2023/10/10 14:11:00;;;;;;;46.42;29.77;;;25.50;99.90;;;;;;5111736;28;20541;-77
2023/10/10 14:13:27;;;;;;;48.28;30.80;;;25.20;99.90;;;;;;5095072;28;20031;-77
2023/10/10 14:15:57;;;;;;;47.97;30.42;;;25.30;99.90;;;;;;5111981;28;20051;-76
2023/10/10 14:18:49;;;;;;;49.80;30.13;;;25.20;99.90;;;;;;5111836;28;20040;-77
2023/10/10 14:21:16;;;;;;;48.70;29.53;;;25.50;99.90;;;;;;5111593;28;20078;-77
2023/10/10 14:23:45;;;;;;;44.53;28.73;;;25.20;99.90;;;;;;5112198;28;20046;-77
2023/10/10 14:26:18;;;;;;;52.22;30.55;;;25.50;99.90;;;;;;5111756;28;20127;-76
2023/10/10 14:28:50;;;;;;;48.42;29.33;;;25.30;99.90;;;;;;5111975;28;20043;-76
2023/10/10 14:31:22;;;;;;;41.60;28.97;;;25.20;99.90;;;;;;5111496;28;20115;-77
2023/10/10 14:33:48;;;;;;;41.88;27.85;;;25.30;99.90;;;;;;5111567;28;20772;-77
2023/10/10 14:36:14;;;;;;;44.70;28.52;;;25.70;99.90;;;;;;5111828;28;20074;-77
2023/10/10 14:38:46;;;;;;;44.58;27.98;;;25.20;99.90;;;;;;5111477;28;20067;-77
2023/10/10 14:41:17;;;;;;;49.95;29.23;;;25.40;99.90;;;;;;5111307;28;20039;-77
2023/10/10 14:43:54;;;;;;;39.22;26.50;;;25.30;99.90;;;;;;5111564;28;20036;-77
2023/10/10 14:46:32;;;;;;;42.78;27.65;;;25.50;99.90;;;;;;5111548;28;20043;-77
2023/10/10 14:49:06;;;;;;;42.33;26.75;;;25.10;99.90;;;;;;5111349;28;20036;-76
2023/10/10 14:51:37;;;;;;;37.92;26.98;;;25.20;99.90;;;;;;5111282;28;20045;-76
2023/10/10 14:54:08;;;;;;;45.90;28.67;;;25.60;99.90;;;;;;5111296;28;20040;-77
2023/10/10 14:56:39;;;;;;;41.30;26.92;;;25.10;99.90;;;;;;5111402;28;20034;-77
2023/10/10 14:59:10;;;;;;;43.58;28.13;;;25.10;99.90;;;;;;5111527;28;20058;-77
2023/10/10 15:01:36;;;;;;;49.08;28.73;;;25.00;99.90;;;;;;5109971;28;20040;-77
2023/10/10 15:04:04;;;;;;;45.60;28.25;;;25.10;99.90;;;;;;5115241;28;20122;-77
2023/10/10 15:06:31;;;;;;;39.60;26.90;;;25.20;99.90;;;;;;5117828;28;20047;-76
2023/10/10 15:08:57;;;;;;;43.30;27.67;;;24.90;99.90;;;;;;5101664;28;20057;-77
2023/10/10 15:11:27;;;;;;;44.05;26.65;;;25.10;99.90;;;;;;5113086;28;20084;-76
2023/10/10 15:14:06;;;;;;;44.28;27.98;;;25.10;99.90;;;;;;5111486;28;20039;-77
2023/10/10 15:16:35;;;;;;;46.97;26.80;;;25.10;99.90;;;;;;5111417;28;20099;-76
2023/10/10 15:19:02;;;;;;;42.67;28.20;;;24.80;99.90;;;;;;5111415;28;20039;-76
2023/10/10 15:21:32;;;;;;;41.67;26.42;;;24.90;99.90;;;;;;5111000;28;20100;-76
2023/10/10 15:24:02;;;;;;;39.92;26.02;;;24.70;99.90;;;;;;5093991;28;20027;-77
2023/10/10 15:26:28;;;;;;;42.70;26.58;;;24.80;99.90;;;;;;5111230;28;20395;-76
2023/10/10 15:28:56;;;;;;;41.45;26.20;;;24.90;99.90;;;;;;5111007;28;20114;-76
2023/10/10 15:31:27;;;;;;;46.53;27.75;;;24.90;99.90;;;;;;5110726;28;20402;-76
2023/10/10 15:33:53;;;;;;;39.22;25.75;;;25.00;99.90;;;;;;5111441;28;20376;-76
2023/10/10 15:36:19;;;;;;;35.50;24.75;;;24.80;99.90;;;;;;5094073;28;20061;-77
2023/10/10 15:38:45;;;;;;;35.85;24.67;;;24.90;99.90;;;;;;5111009;28;20105;-76
2023/10/10 15:41:19;;;;;;;42.17;26.52;;;25.00;99.90;;;;;;5093930;28;20490;-77
2023/10/10 15:43:49;;;;;;;36.10;24.23;;;24.80;99.90;;;;;;5110631;28;20522;-76
2023/10/10 15:46:25;;;;;;;41.28;25.13;;;24.60;99.90;;;;;;5110664;28;20500;-76
2023/10/10 15:48:52;;;;;;;39.10;23.15;;;24.90;99.90;;;;;;5094031;28;20034;-77
2023/10/10 15:51:21;;;;;;;34.72;23.80;;;24.60;99.90;;;;;;5110372;28;20114;-76
2023/10/10 15:53:48;;;;;;;37.75;23.75;;;24.90;99.90;;;;;;5110578;28;20035;-77